sensor_id;sensor_type;location;lat;lon;timestamp;pressure;altitude;pressure_sealevel;temperature;humidity
47524;BME280;33253;42.144;25.884;2023-05-02T00:01:53;101071.25;;;11.83;91.29
47524;BME280;33253;42.144;25.884;2023-05-02T00:04:18;101068.91;;;11.68;91.29
47524;BME280;33253;42.144;25.884;2023-05-02T00:06:44;101034.53;;;11.49;91.99
47524;BME280;33253;42.144;25.884;2023-05-02T00:09:12;101078.44;;;11.69;92.79
47524;BME280;33253;42.144;25.884;2023-05-02T00:11:39;101075.03;;;11.49;93.81
47524;BME280;33253;42.144;25.884;2023-05-02T00:14:05;101033.69;;;11.29;93.73
47524;BME280;33253;42.144;25.884;2023-05-02T00:16:30;101073.50;;;11.54;93.47
47524;BME280;33253;42.144;25.884;2023-05-02T00:18:56;101075.63;;;11.43;93.82
47524;BME280;33253;42.144;25.884;2023-05-02T00:21:21;101085.63;;;11.55;94.65
47524;BME280;33253;42.144;25.884;2023-05-02T00:23:46;101080.53;;;11.78;93.51
47524;BME280;33253;42.144;25.884;2023-05-02T00:26:12;101078.16;;;11.82;92.12
47524;BME280;33253;42.144;25.884;2023-05-02T00:28:37;101083.19;;;11.79;91.48
47524;BME280;33253;42.144;25.884;2023-05-02T00:31:04;101087.41;;;11.77;90.97
47524;BME280;33253;42.144;25.884;2023-05-02T00:33:29;101033.94;;;11.36;92.23
47524;BME280;33253;42.144;25.884;2023-05-02T00:35:55;101084.63;;;11.52;93.28
47524;BME280;33253;42.144;25.884;2023-05-02T00:38:20;101084.63;;;11.32;94.53
47524;BME280;33253;42.144;25.884;2023-05-02T00:40:47;101092.91;;;11.25;94.75
47524;BME280;33253;42.144;25.884;2023-05-02T00:43:14;101088.97;;;11.33;93.51
47524;BME280;33253;42.144;25.884;2023-05-02T00:45:41;101043.75;;;11.04;93.31
47524;BME280;33253;42.144;25.884;2023-05-02T00:48:08;101093.78;;;11.45;94.72
47524;BME280;33253;42.144;25.884;2023-05-02T00:50:39;101091.41;;;11.49;93.87
47524;BME280;33253;42.144;25.884;2023-05-02T00:53:06;101092.97;;;11.46;94.36
47524;BME280;33253;42.144;25.884;2023-05-02T00:55:34;101091.47;;;11.51;94.38
47524;BME280;33253;42.144;25.884;2023-05-02T00:58:04;101089.91;;;11.55;93.74
47524;BME280;33253;42.144;25.884;2023-05-02T01:03:37;101087.22;;;11.32;94.91
47524;BME280;33253;42.144;25.884;2023-05-02T01:09:01;101088.81;;;11.30;94.76
47524;BME280;33253;42.144;25.884;2023-05-02T01:14:29;101085.97;;;11.24;95.08
47524;BME280;33253;42.144;25.884;2023-05-02T01:16:56;101087.16;;;11.30;93.89
47524;BME280;33253;42.144;25.884;2023-05-02T01:19:31;101087.69;;;11.43;92.79
47524;BME280;33253;42.144;25.884;2023-05-02T01:22:00;101083.81;;;11.33;92.27
47524;BME280;33253;42.144;25.884;2023-05-02T01:29:51;101083.88;;;11.35;90.90
47524;BME280;33253;42.144;25.884;2023-05-02T01:32:19;101079.56;;;11.35;90.68
47524;BME280;33253;42.144;25.884;2023-05-02T01:34:46;101062.16;;;11.11;90.40
47524;BME280;33253;42.144;25.884;2023-05-02T01:37:13;101077.06;;;10.97;91.32
47524;BME280;33253;42.144;25.884;2023-05-02T01:39:41;101086.25;;;10.91;92.34
47524;BME280;33253;42.144;25.884;2023-05-02T01:42:10;101087.75;;;10.86;92.30
47524;BME280;33253;42.144;25.884;2023-05-02T01:44:37;101087.47;;;10.79;91.95
47524;BME280;33253;42.144;25.884;2023-05-02T01:47:04;101089.19;;;10.61;92.64
47524;BME280;33253;42.144;25.884;2023-05-02T01:49:32;101084.16;;;10.28;94.06
47524;BME280;33253;42.144;25.884;2023-05-02T01:52:02;101087.41;;;10.24;94.71
47524;BME280;33253;42.144;25.884;2023-05-02T01:54:29;101090.34;;;10.13;94.67
47524;BME280;33253;42.144;25.884;2023-05-02T01:56:56;101084.94;;;10.27;94.10
47524;BME280;33253;42.144;25.884;2023-05-02T01:59:24;101084.53;;;10.35;92.90
47524;BME280;33253;42.144;25.884;2023-05-02T02:01:51;101088.84;;;10.00;94.16
47524;BME280;33253;42.144;25.884;2023-05-02T02:04:19;101088.16;;;9.68;95.57
47524;BME280;33253;42.144;25.884;2023-05-02T02:06:51;101091.03;;;9.75;97.06
47524;BME280;33253;42.144;25.884;2023-05-02T02:09:17;101095.28;;;9.91;96.38
47524;BME280;33253;42.144;25.884;2023-05-02T02:11:49;101091.13;;;9.94;95.88
47524;BME280;33253;42.144;25.884;2023-05-02T02:14:21;101089.38;;;9.93;95.52
47524;BME280;33253;42.144;25.884;2023-05-02T02:16:50;101089.94;;;9.87;95.93
47524;BME280;33253;42.144;25.884;2023-05-02T02:19:18;101096.16;;;9.40;97.50
47524;BME280;33253;42.144;25.884;2023-05-02T02:21:46;101096.88;;;9.37;98.63
47524;BME280;33253;42.144;25.884;2023-05-02T02:24:12;101089.72;;;9.32;98.90
47524;BME280;33253;42.144;25.884;2023-05-02T02:26:40;101103.47;;;9.49;99.06
47524;BME280;33253;42.144;25.884;2023-05-02T02:29:06;101107.94;;;9.35;99.04
47524;BME280;33253;42.144;25.884;2023-05-02T02:31:32;101102.13;;;9.22;99.99
47524;BME280;33253;42.144;25.884;2023-05-02T02:33:59;101071.44;;;9.11;100.00
47524;BME280;33253;42.144;25.884;2023-05-02T02:36:44;101109.84;;;9.39;99.67
47524;BME280;33253;42.144;25.884;2023-05-02T02:44:42;101118.38;;;9.38;99.53
47524;BME280;33253;42.144;25.884;2023-05-02T02:49:46;101084.97;;;9.06;100.00
47524;BME280;33253;42.144;25.884;2023-05-02T02:55:11;101100.75;;;9.29;100.00
47524;BME280;33253;42.144;25.884;2023-05-02T02:57:54;101123.22;;;9.32;100.00
47524;BME280;33253;42.144;25.884;2023-05-02T03:00:24;101129.28;;;9.32;100.00
47524;BME280;33253;42.144;25.884;2023-05-02T03:02:53;101115.81;;;9.21;100.00
47524;BME280;33253;42.144;25.884;2023-05-02T03:05:20;101105.97;;;9.14;100.00
47524;BME280;33253;42.144;25.884;2023-05-02T03:07:46;101141.09;;;9.45;100.00
47524;BME280;33253;42.144;25.884;2023-05-02T03:10:12;101065.16;;;9.05;100.00
47524;BME280;33253;42.144;25.884;2023-05-02T03:12:37;101126.13;;;9.21;100.00
47524;BME280;33253;42.144;25.884;2023-05-02T03:17:34;101136.59;;;9.25;100.00
47524;BME280;33253;42.144;25.884;2023-05-02T03:19:59;101135.75;;;9.26;100.00
47524;BME280;33253;42.144;25.884;2023-05-02T03:22:25;101134.50;;;9.17;100.00
47524;BME280;33253;42.144;25.884;2023-05-02T03:24:50;101085.22;;;8.63;100.00
47524;BME280;33253;42.144;25.884;2023-05-02T03:27:16;101128.34;;;8.82;100.00
47524;BME280;33253;42.144;25.884;2023-05-02T03:29:41;101137.13;;;8.71;100.00
47524;BME280;33253;42.144;25.884;2023-05-02T03:32:07;101135.16;;;8.82;100.00
47524;BME280;33253;42.144;25.884;2023-05-02T03:34:33;101146.25;;;8.81;100.00
47524;BME280;33253;42.144;25.884;2023-05-02T03:36:58;101131.09;;;8.70;100.00
47524;BME280;33253;42.144;25.884;2023-05-02T03:39:24;101143.09;;;8.70;100.00
47524;BME280;33253;42.144;25.884;2023-05-02T03:41:49;101137.19;;;8.11;100.00
47524;BME280;33253;42.144;25.884;2023-05-02T03:44:15;101084.53;;;7.74;100.00
47524;BME280;33253;42.144;25.884;2023-05-02T03:46:40;101151.22;;;8.16;100.00
47524;BME280;33253;42.144;25.884;2023-05-02T03:49:06;101154.94;;;8.21;100.00
47524;BME280;33253;42.144;25.884;2023-05-02T03:51:31;101141.81;;;8.17;100.00
47524;BME280;33253;42.144;25.884;2023-05-02T03:53:59;101115.91;;;7.99;100.00
47524;BME280;33253;42.144;25.884;2023-05-02T03:56:24;101164.31;;;8.21;100.00
47524;BME280;33253;42.144;25.884;2023-05-02T03:58:50;101171.16;;;8.20;100.00
47524;BME280;33253;42.144;25.884;2023-05-02T04:01:15;101163.97;;;8.15;100.00
47524;BME280;33253;42.144;25.884;2023-05-02T04:03:41;101171.44;;;8.25;100.00
47524;BME280;33253;42.144;25.884;2023-05-02T04:06:07;101176.22;;;8.34;100.00
47524;BME280;33253;42.144;25.884;2023-05-02T04:08:33;101164.16;;;8.33;100.00
47524;BME280;33253;42.144;25.884;2023-05-02T04:10:58;101190.25;;;8.54;99.77
47524;BME280;33253;42.144;25.884;2023-05-02T04:13:23;101183.50;;;8.56;99.68
47524;BME280;33253;42.144;25.884;2023-05-02T04:15:49;101154.66;;;8.62;98.57
47524;BME280;33253;42.144;25.884;2023-05-02T04:18:14;101185.41;;;8.90;97.81
47524;BME280;33253;42.144;25.884;2023-05-02T04:20:42;101190.50;;;9.05;97.44
47524;BME280;33253;42.144;25.884;2023-05-02T04:23:08;101186.97;;;9.19;97.41
47524;BME280;33253;42.144;25.884;2023-05-02T04:25:34;101194.63;;;9.34;96.85
47524;BME280;33253;42.144;25.884;2023-05-02T04:27:59;101192.06;;;9.34;95.58
47524;BME280;33253;42.144;25.884;2023-05-02T04:30:25;101197.00;;;9.46;96.53
47524;BME280;33253;42.144;25.884;2023-05-02T04:32:50;101153.19;;;9.30;96.83
47524;BME280;33253;42.144;25.884;2023-05-02T04:35:16;101192.34;;;9.72;97.64
47524;BME280;33253;42.144;25.884;2023-05-02T04:37:42;101132.56;;;9.46;98.43
47524;BME280;33253;42.144;25.884;2023-05-02T04:40:07;101183.66;;;9.88;96.54
47524;BME280;33253;42.144;25.884;2023-05-02T04:42:33;101189.00;;;9.91;97.37
47524;BME280;33253;42.144;25.884;2023-05-02T04:44:59;101191.16;;;10.00;95.42
47524;BME280;33253;42.144;25.884;2023-05-02T04:47:24;101184.53;;;10.05;94.72
47524;BME280;33253;42.144;25.884;2023-05-02T04:49:50;101183.97;;;10.11;94.37
47524;BME280;33253;42.144;25.884;2023-05-02T04:52:15;101183.13;;;10.12;94.38
47524;BME280;33253;42.144;25.884;2023-05-02T04:54:40;101182.22;;;10.28;94.35
47524;BME280;33253;42.144;25.884;2023-05-02T04:57:06;101183.31;;;10.33;95.81
47524;BME280;33253;42.144;25.884;2023-05-02T04:59:32;101181.72;;;10.35;95.20
47524;BME280;33253;42.144;25.884;2023-05-02T05:01:58;101182.28;;;10.46;94.51
47524;BME280;33253;42.144;25.884;2023-05-02T05:04:23;101182.34;;;10.47;96.86
47524;BME280;33253;42.144;25.884;2023-05-02T05:06:49;101182.34;;;10.47;96.07
47524;BME280;33253;42.144;25.884;2023-05-02T05:09:14;101181.72;;;10.35;95.37
47524;BME280;33253;42.144;25.884;2023-05-02T05:11:40;101183.19;;;10.30;95.52
47524;BME280;33253;42.144;25.884;2023-05-02T05:14:08;101169.16;;;10.25;95.62
47524;BME280;33253;42.144;25.884;2023-05-02T05:16:34;101186.72;;;10.48;95.88
47524;BME280;33253;42.144;25.884;2023-05-02T05:18:59;101199.91;;;10.55;95.29
47524;BME280;33253;42.144;25.884;2023-05-02T05:21:25;101199.53;;;10.65;97.09
47524;BME280;33253;42.144;25.884;2023-05-02T05:23:51;101163.09;;;10.41;96.63
47524;BME280;33253;42.144;25.884;2023-05-02T05:26:17;101202.28;;;10.68;97.54
47524;BME280;33253;42.144;25.884;2023-05-02T05:28:42;101194.69;;;10.71;96.91
47524;BME280;33253;42.144;25.884;2023-05-02T05:31:12;101143.63;;;10.47;96.90
47524;BME280;33253;42.144;25.884;2023-05-02T05:33:40;101190.59;;;10.76;97.18
47524;BME280;33253;42.144;25.884;2023-05-02T05:36:07;101198.06;;;10.88;99.39
47524;BME280;33253;42.144;25.884;2023-05-02T05:38:33;101200.66;;;10.88;97.81
47524;BME280;33253;42.144;25.884;2023-05-02T05:40:59;101204.91;;;10.88;97.29
47524;BME280;33253;42.144;25.884;2023-05-02T05:43:24;101179.81;;;10.85;97.13
47524;BME280;33253;42.144;25.884;2023-05-02T05:45:54;101200.78;;;11.09;97.39
47524;BME280;33253;42.144;25.884;2023-05-02T05:48:20;101204.88;;;11.24;95.86
47524;BME280;33253;42.144;25.884;2023-05-02T05:50:46;101205.19;;;11.49;96.13
47524;BME280;33253;42.144;25.884;2023-05-02T05:53:12;101201.91;;;11.54;94.66
47524;BME280;33253;42.144;25.884;2023-05-02T05:55:37;101219.47;;;11.80;92.04
47524;BME280;33253;42.144;25.884;2023-05-02T05:58:04;101202.66;;;11.90;92.71
47524;BME280;33253;42.144;25.884;2023-05-02T06:00:32;101211.66;;;11.98;91.36
47524;BME280;33253;42.144;25.884;2023-05-02T06:02:58;101207.38;;;11.99;93.60
47524;BME280;33253;42.144;25.884;2023-05-02T06:05:23;101214.50;;;12.05;93.04
47524;BME280;33253;42.144;25.884;2023-05-02T06:07:49;101209.69;;;12.12;91.50
47524;BME280;33253;42.144;25.884;2023-05-02T06:10:14;101210.94;;;12.22;90.09
47524;BME280;33253;42.144;25.884;2023-05-02T06:12:39;101211.38;;;12.33;91.54
47524;BME280;33253;42.144;25.884;2023-05-02T06:15:05;101201.94;;;12.55;89.08
47524;BME280;33253;42.144;25.884;2023-05-02T06:17:31;101186.38;;;12.55;90.08
47524;BME280;33253;42.144;25.884;2023-05-02T06:19:56;101212.09;;;12.71;92.23
47524;BME280;33253;42.144;25.884;2023-05-02T06:22:22;101202.88;;;12.79;87.85
47524;BME280;33253;42.144;25.884;2023-05-02T06:24:47;101201.50;;;12.88;86.49
47524;BME280;33253;42.144;25.884;2023-05-02T06:27:12;101184.88;;;12.83;87.63
47524;BME280;33253;42.144;25.884;2023-05-02T06:29:38;101187.34;;;12.79;86.23
47524;BME280;33253;42.144;25.884;2023-05-02T06:32:03;101192.56;;;13.02;90.22
47524;BME280;33253;42.144;25.884;2023-05-02T06:34:32;101199.38;;;13.23;86.83
47524;BME280;33253;42.144;25.884;2023-05-02T06:36:58;101203.19;;;13.33;84.38
47524;BME280;33253;42.144;25.884;2023-05-02T06:39:24;101201.94;;;13.68;82.19
47524;BME280;33253;42.144;25.884;2023-05-02T06:41:49;101204.75;;;13.74;85.04
47524;BME280;33253;42.144;25.884;2023-05-02T06:44:15;101189.63;;;13.87;83.72
47524;BME280;33253;42.144;25.884;2023-05-02T06:46:41;101161.31;;;13.69;82.24
47524;BME280;33253;42.144;25.884;2023-05-02T06:49:06;101188.22;;;13.97;77.68
47524;BME280;33253;42.144;25.884;2023-05-02T06:51:32;101203.50;;;14.13;78.08
47524;BME280;33253;42.144;25.884;2023-05-02T06:53:57;101191.03;;;14.29;77.54
47524;BME280;33253;42.144;25.884;2023-05-02T06:56:23;101201.66;;;14.36;77.37
47524;BME280;33253;42.144;25.884;2023-05-02T06:58:52;101202.38;;;14.58;73.20
47524;BME280;33253;42.144;25.884;2023-05-02T07:01:17;101204.47;;;14.68;74.42
47524;BME280;33253;42.144;25.884;2023-05-02T07:03:45;101201.69;;;14.64;75.14
47524;BME280;33253;42.144;25.884;2023-05-02T07:06:11;101202.69;;;14.67;75.73
47524;BME280;33253;42.144;25.884;2023-05-02T07:08:36;101203.88;;;14.77;75.82
47524;BME280;33253;42.144;25.884;2023-05-02T07:11:02;101131.06;;;14.48;69.74
47524;BME280;33253;42.144;25.884;2023-05-02T07:13:28;101200.19;;;14.98;70.60
47524;BME280;33253;42.144;25.884;2023-05-02T07:15:53;101206.31;;;15.00;72.99
47524;BME280;33253;42.144;25.884;2023-05-02T07:18:19;101202.03;;;15.02;71.40
47524;BME280;33253;42.144;25.884;2023-05-02T07:20:45;101200.03;;;15.22;68.46
47524;BME280;33253;42.144;25.884;2023-05-02T07:23:11;101192.31;;;15.25;71.30
47524;BME280;33253;42.144;25.884;2023-05-02T07:25:36;101189.84;;;15.30;71.29
47524;BME280;33253;42.144;25.884;2023-05-02T07:28:02;101184.44;;;15.22;66.70
47524;BME280;33253;42.144;25.884;2023-05-02T07:30:27;101194.53;;;15.42;65.00
47524;BME280;33253;42.144;25.884;2023-05-02T07:32:53;101204.56;;;15.60;69.24
47524;BME280;33253;42.144;25.884;2023-05-02T07:35:18;101168.34;;;15.35;65.74
47524;BME280;33253;42.144;25.884;2023-05-02T07:37:44;101193.88;;;15.49;66.57
47524;BME280;33253;42.144;25.884;2023-05-02T07:40:09;101165.09;;;15.43;66.69
47524;BME280;33253;42.144;25.884;2023-05-02T07:42:35;101207.69;;;15.78;63.20
47524;BME280;33253;42.144;25.884;2023-05-02T07:45:00;101170.78;;;15.61;66.58
47524;BME280;33253;42.144;25.884;2023-05-02T07:47:26;101211.69;;;15.97;63.93
47524;BME280;33253;42.144;25.884;2023-05-02T07:49:52;101185.66;;;15.97;60.77
47524;BME280;33253;42.144;25.884;2023-05-02T07:52:19;101196.94;;;15.96;60.54
47524;BME280;33253;42.144;25.884;2023-05-02T07:54:44;101193.63;;;16.04;56.81
47524;BME280;33253;42.144;25.884;2023-05-02T07:57:11;101187.75;;;16.11;59.40
47524;BME280;33253;42.144;25.884;2023-05-02T07:59:38;101176.47;;;16.12;55.82
47524;BME280;33253;42.144;25.884;2023-05-02T08:02:03;101196.06;;;16.31;56.08
47524;BME280;33253;42.144;25.884;2023-05-02T08:04:29;101193.66;;;16.39;59.85
47524;BME280;33253;42.144;25.884;2023-05-02T08:06:54;101187.66;;;16.41;60.68
47524;BME280;33253;42.144;25.884;2023-05-02T08:09:20;101178.53;;;16.60;57.88
47524;BME280;33253;42.144;25.884;2023-05-02T08:11:45;101188.56;;;16.80;60.29
47524;BME280;33253;42.144;25.884;2023-05-02T08:14:11;101189.88;;;16.99;60.08
47524;BME280;33253;42.144;25.884;2023-05-02T08:16:37;101186.66;;;17.11;55.44
47524;BME280;33253;42.144;25.884;2023-05-02T08:19:02;101190.59;;;17.33;54.70
47524;BME280;33253;42.144;25.884;2023-05-02T08:21:28;101183.09;;;17.49;55.26
47524;BME280;33253;42.144;25.884;2023-05-02T08:23:58;101186.78;;;17.60;52.37
47524;BME280;33253;42.144;25.884;2023-05-02T08:26:24;101185.97;;;17.62;54.37
47524;BME280;33253;42.144;25.884;2023-05-02T08:28:56;101178.16;;;17.64;53.61
47524;BME280;33253;42.144;25.884;2023-05-02T08:31:21;101181.94;;;17.80;52.91
47524;BME280;33253;42.144;25.884;2023-05-02T08:33:47;101176.78;;;17.83;52.12
47524;BME280;33253;42.144;25.884;2023-05-02T08:36:14;101164.72;;;17.91;50.06
47524;BME280;33253;42.144;25.884;2023-05-02T08:38:44;101163.31;;;18.07;51.68
47524;BME280;33253;42.144;25.884;2023-05-02T08:43:37;101171.38;;;18.21;48.46
47524;BME280;33253;42.144;25.884;2023-05-02T08:46:04;101157.56;;;18.30;52.13
47524;BME280;33253;42.144;25.884;2023-05-02T08:48:34;101170.94;;;18.49;50.64
47524;BME280;33253;42.144;25.884;2023-05-02T08:51:01;101139.44;;;18.41;51.11
47524;BME280;33253;42.144;25.884;2023-05-02T08:53:27;101177.28;;;18.63;47.37
47524;BME280;33253;42.144;25.884;2023-05-02T08:55:54;101168.63;;;18.69;50.99
47524;BME280;33253;42.144;25.884;2023-05-02T08:58:19;101163.47;;;18.75;52.33
47524;BME280;33253;42.144;25.884;2023-05-02T09:00:47;101166.38;;;18.90;47.54
47524;BME280;33253;42.144;25.884;2023-05-02T09:05:46;101150.16;;;19.18;51.31
47524;BME280;33253;42.144;25.884;2023-05-02T09:08:21;101138.94;;;19.30;46.96
47524;BME280;33253;42.144;25.884;2023-05-02T09:10:47;101121.53;;;19.35;47.46
47524;BME280;33253;42.144;25.884;2023-05-02T09:13:44;101143.66;;;19.63;46.13
47524;BME280;33253;42.144;25.884;2023-05-02T09:16:23;101125.38;;;19.68;48.41
47524;BME280;33253;42.144;25.884;2023-05-02T09:18:52;101133.38;;;19.82;46.11
47524;BME280;33253;42.144;25.884;2023-05-02T09:21:21;101137.91;;;20.00;49.92
47524;BME280;33253;42.144;25.884;2023-05-02T09:26:26;101118.91;;;20.23;44.33
47524;BME280;33253;42.144;25.884;2023-05-02T09:29:02;101117.88;;;20.05;43.71
47524;BME280;33253;42.144;25.884;2023-05-02T09:31:30;101109.94;;;19.96;43.92
47524;BME280;33253;42.144;25.884;2023-05-02T09:39:10;101102.41;;;20.41;40.82
47524;BME280;33253;42.144;25.884;2023-05-02T09:41:44;101089.41;;;20.58;43.16
47524;BME280;33253;42.144;25.884;2023-05-02T09:44:12;101102.63;;;20.73;44.04
47524;BME280;33253;42.144;25.884;2023-05-02T09:46:39;101099.03;;;20.59;38.49
47524;BME280;33253;42.144;25.884;2023-05-02T09:49:05;101097.38;;;20.73;41.04
47524;BME280;33253;42.144;25.884;2023-05-02T09:51:31;101095.66;;;20.83;38.11
47524;BME280;33253;42.144;25.884;2023-05-02T09:53:57;101080.81;;;20.88;38.81
47524;BME280;33253;42.144;25.884;2023-05-02T09:56:22;101047.44;;;20.58;38.18
47524;BME280;33253;42.144;25.884;2023-05-02T09:58:47;101085.03;;;20.63;34.02
47524;BME280;33253;42.144;25.884;2023-05-02T10:01:14;101070.38;;;21.00;33.08
47524;BME280;33253;42.144;25.884;2023-05-02T10:03:41;101067.84;;;21.38;32.62
47524;BME280;33253;42.144;25.884;2023-05-02T10:06:10;101076.56;;;21.26;34.06
47524;BME280;33253;42.144;25.884;2023-05-02T10:08:38;101065.16;;;21.14;33.34
47524;BME280;33253;42.144;25.884;2023-05-02T10:11:06;101061.75;;;21.51;33.91
47524;BME280;33253;42.144;25.884;2023-05-02T10:13:33;101071.44;;;21.86;34.18
47524;BME280;33253;42.144;25.884;2023-05-02T10:16:00;101054.78;;;21.81;30.57
47524;BME280;33253;42.144;25.884;2023-05-02T10:18:51;101048.63;;;22.05;32.59
47524;BME280;33253;42.144;25.884;2023-05-02T10:21:25;101031.97;;;22.08;31.90
47524;BME280;33253;42.144;25.884;2023-05-02T10:23:52;101048.56;;;22.30;32.73
47524;BME280;33253;42.144;25.884;2023-05-02T10:26:18;101055.63;;;21.94;31.73
47524;BME280;33253;42.144;25.884;2023-05-02T10:28:46;101053.00;;;22.11;33.07
47524;BME280;33253;42.144;25.884;2023-05-02T10:31:13;101058.22;;;22.33;35.70
47524;BME280;33253;42.144;25.884;2023-05-02T10:33:39;101060.88;;;22.37;35.42
47524;BME280;33253;42.144;25.884;2023-05-02T10:36:09;101045.97;;;22.18;34.59
47524;BME280;33253;42.144;25.884;2023-05-02T10:38:39;101011.81;;;22.14;34.14
47524;BME280;33253;42.144;25.884;2023-05-02T10:41:12;101045.97;;;22.27;34.62
47524;BME280;33253;42.144;25.884;2023-05-02T10:43:40;101005.72;;;21.75;33.57
47524;BME280;33253;42.144;25.884;2023-05-02T10:46:32;101044.25;;;21.86;32.71
47524;BME280;33253;42.144;25.884;2023-05-02T10:51:31;101053.78;;;22.58;32.77
47524;BME280;33253;42.144;25.884;2023-05-02T10:59:42;101037.75;;;23.07;31.72
47524;BME280;33253;42.144;25.884;2023-05-02T11:05:05;101036.06;;;22.97;31.31
47524;BME280;33253;42.144;25.884;2023-05-02T11:07:35;101037.78;;;23.04;33.20
47524;BME280;33253;42.144;25.884;2023-05-02T11:12:43;101029.78;;;23.26;30.92
47524;BME280;33253;42.144;25.884;2023-05-02T11:15:12;101017.44;;;23.33;32.82
47524;BME280;33253;42.144;25.884;2023-05-02T11:20:26;100994.84;;;22.90;34.40
47524;BME280;33253;42.144;25.884;2023-05-02T11:22:53;101023.69;;;23.18;31.86
47524;BME280;33253;42.144;25.884;2023-05-02T11:25:32;101025.47;;;23.16;31.99
47524;BME280;33253;42.144;25.884;2023-05-02T11:27:58;101021.81;;;23.37;34.14
47524;BME280;33253;42.144;25.884;2023-05-02T11:35:30;101005.13;;;23.35;31.38
47524;BME280;33253;42.144;25.884;2023-05-02T11:38:00;100981.56;;;23.16;32.15
47524;BME280;33253;42.144;25.884;2023-05-02T11:40:28;101010.41;;;23.33;33.64
47524;BME280;33253;42.144;25.884;2023-05-02T11:42:56;101001.59;;;23.37;31.00
47524;BME280;33253;42.144;25.884;2023-05-02T11:45:34;100965.56;;;23.41;31.97
47524;BME280;33253;42.144;25.884;2023-05-02T11:48:13;100997.13;;;23.50;30.03
47524;BME280;33253;42.144;25.884;2023-05-02T11:50:48;101001.38;;;23.67;32.00
47524;BME280;33253;42.144;25.884;2023-05-02T11:53:17;100974.16;;;23.63;31.26
47524;BME280;33253;42.144;25.884;2023-05-02T11:55:44;100937.41;;;23.46;32.70
47524;BME280;33253;42.144;25.884;2023-05-02T11:58:16;100972.41;;;23.62;31.01
47524;BME280;33253;42.144;25.884;2023-05-02T12:00:43;100990.72;;;23.79;31.72
47524;BME280;33253;42.144;25.884;2023-05-02T12:05:47;100966.44;;;23.43;31.60
47524;BME280;33253;42.144;25.884;2023-05-02T12:08:18;100980.94;;;23.87;31.39
47524;BME280;33253;42.144;25.884;2023-05-02T12:10:44;100987.97;;;23.93;30.86
47524;BME280;33253;42.144;25.884;2023-05-02T12:13:10;100978.28;;;23.94;30.37
47524;BME280;33253;42.144;25.884;2023-05-02T12:15:35;100978.16;;;24.06;30.88
47524;BME280;33253;42.144;25.884;2023-05-02T12:18:01;100971.13;;;24.06;32.36
47524;BME280;33253;42.144;25.884;2023-05-02T12:20:27;100965.91;;;23.99;30.83
47524;BME280;33253;42.144;25.884;2023-05-02T12:22:52;100937.84;;;23.90;30.52
47524;BME280;33253;42.144;25.884;2023-05-02T12:25:18;100938.63;;;24.04;30.13
47524;BME280;33253;42.144;25.884;2023-05-02T12:28:02;100979.81;;;24.15;30.83
47524;BME280;33253;42.144;25.884;2023-05-02T12:30:29;100964.13;;;24.02;31.36
47524;BME280;33253;42.144;25.884;2023-05-02T12:32:56;100949.28;;;23.95;30.37
47524;BME280;33253;42.144;25.884;2023-05-02T12:35:26;100944.00;;;23.94;30.09
47524;BME280;33253;42.144;25.884;2023-05-02T12:37:53;100910.72;;;23.82;31.98
47524;BME280;33253;42.144;25.884;2023-05-02T12:40:19;100943.84;;;24.09;32.59
47524;BME280;33253;42.144;25.884;2023-05-02T12:42:58;100935.19;;;23.95;31.01
47524;BME280;33253;42.144;25.884;2023-05-02T12:45:24;100943.13;;;23.90;31.38
47524;BME280;33253;42.144;25.884;2023-05-02T12:47:53;100895.31;;;23.38;29.96
47524;BME280;33253;42.144;25.884;2023-05-02T12:50:19;100930.34;;;23.53;30.45
47524;BME280;33253;42.144;25.884;2023-05-02T12:52:49;100934.59;;;23.65;30.18
47524;BME280;33253;42.144;25.884;2023-05-02T12:55:23;100931.88;;;23.75;31.57
47524;BME280;33253;42.144;25.884;2023-05-02T12:57:49;100916.97;;;23.70;31.40
47524;BME280;33253;42.144;25.884;2023-05-02T13:00:16;100915.28;;;23.63;31.88
47524;BME280;33253;42.144;25.884;2023-05-02T13:02:42;100883.09;;;23.31;32.15
47524;BME280;33253;42.144;25.884;2023-05-02T13:05:15;100917.31;;;23.33;31.62
47524;BME280;33253;42.144;25.884;2023-05-02T13:07:40;100899.03;;;23.13;32.46
47524;BME280;33253;42.144;25.884;2023-05-02T13:10:06;100904.28;;;23.17;31.76
47524;BME280;33253;42.144;25.884;2023-05-02T13:12:32;100919.16;;;23.26;31.80
47524;BME280;33253;42.144;25.884;2023-05-02T13:15:02;100914.69;;;23.34;31.79
47524;BME280;33253;42.144;25.884;2023-05-02T13:17:27;100883.13;;;23.30;32.24
47524;BME280;33253;42.144;25.884;2023-05-02T13:19:53;100919.72;;;23.57;33.35
47524;BME280;33253;42.144;25.884;2023-05-02T13:22:18;100905.75;;;23.48;31.94
47524;BME280;33253;42.144;25.884;2023-05-02T13:24:44;100889.13;;;23.42;31.59
47524;BME280;33253;42.144;25.884;2023-05-02T13:27:10;100900.34;;;23.63;31.81
47524;BME280;33253;42.144;25.884;2023-05-02T13:29:36;100897.63;;;23.71;30.64
47524;BME280;33253;42.144;25.884;2023-05-02T13:32:01;100905.59;;;23.66;31.76
47524;BME280;33253;42.144;25.884;2023-05-02T13:34:27;100863.66;;;23.45;32.41
47524;BME280;33253;42.144;25.884;2023-05-02T13:36:52;100871.16;;;23.82;32.68
47524;BME280;33253;42.144;25.884;2023-05-02T13:39:18;100907.47;;;23.55;32.31
47524;BME280;33253;42.144;25.884;2023-05-02T13:41:43;100904.06;;;23.43;31.08
47524;BME280;33253;42.144;25.884;2023-05-02T13:44:08;100899.56;;;23.53;29.56
47524;BME280;33253;42.144;25.884;2023-05-02T13:46:34;100874.13;;;23.51;31.99